createdAt,value
2024-04-22T00:00:49.657Z,8.44
2024-04-22T00:01:49.804Z,8.26
2024-04-22T00:02:49.625Z,8.25
2024-04-22T00:03:49.633Z,8.15
2024-04-22T00:04:49.603Z,7.97
2024-04-22T00:05:49.591Z,7.92
2024-04-22T00:06:49.537Z,7.89
2024-04-22T00:07:49.533Z,7.72
2024-04-22T00:08:49.534Z,7.67
2024-04-22T00:09:49.511Z,7.59
2024-04-22T00:10:49.581Z,7.66
2024-04-22T00:11:49.511Z,7.75
2024-04-22T00:12:49.484Z,7.79
2024-04-22T00:13:49.464Z,7.90
2024-04-22T00:14:49.474Z,7.99
2024-04-22T00:15:49.447Z,7.90
2024-04-22T00:16:49.617Z,7.84
2024-04-22T00:17:49.509Z,7.93
2024-04-22T00:18:49.411Z,7.94
2024-04-22T00:19:49.406Z,7.87
2024-04-22T00:20:49.423Z,7.97
2024-04-22T00:21:49.422Z,8.03
2024-04-22T00:22:49.380Z,7.97
2024-04-22T00:23:49.363Z,8.10
2024-04-22T00:24:49.354Z,8.17
2024-04-22T00:25:49.332Z,8.14
2024-04-22T00:26:49.373Z,8.15
2024-04-22T00:27:49.330Z,8.21
2024-04-22T00:28:49.299Z,8.26
2024-04-22T00:29:49.316Z,8.29
2024-04-22T00:30:49.288Z,8.30
2024-04-22T00:31:49.280Z,8.17
2024-04-22T00:32:49.427Z,8.14
2024-04-22T00:33:49.256Z,8.18
2024-04-22T00:34:49.249Z,8.15
2024-04-22T00:35:49.233Z,8.17
2024-04-22T00:36:49.230Z,8.26
2024-04-22T00:37:49.235Z,8.28
2024-04-22T00:38:49.269Z,8.28
2024-04-22T00:39:49.216Z,8.32
2024-04-22T00:40:49.230Z,8.32
2024-04-22T00:41:49.219Z,8.33
2024-04-22T00:42:49.151Z,8.40
2024-04-22T00:43:49.149Z,8.44
2024-04-22T00:44:49.124Z,8.47
2024-04-22T00:45:49.128Z,8.50
2024-04-22T00:46:49.184Z,8.50
2024-04-22T00:47:49.154Z,8.44
2024-04-22T00:48:49.087Z,8.42
2024-04-22T00:49:49.086Z,8.37
2024-04-22T00:50:49.073Z,8.36
2024-04-22T00:51:49.054Z,8.39
2024-04-22T00:52:49.080Z,8.40
2024-04-22T00:53:49.032Z,8.37
2024-04-22T00:54:49.033Z,8.39
2024-04-22T00:55:49.034Z,8.35
2024-04-22T00:56:49.016Z,8.35
2024-04-22T00:57:49.042Z,8.33
2024-04-22T00:58:49.024Z,8.32
2024-04-22T00:59:48.988Z,8.32
2024-04-22T01:00:49.011Z,8.32
2024-04-22T01:01:49.038Z,8.25
2024-04-22T01:02:48.972Z,8.20
2024-04-22T01:03:48.981Z,8.12
2024-04-22T01:04:49.054Z,8.08
2024-04-22T01:05:48.898Z,8.08
2024-04-22T01:06:48.898Z,8.12
2024-04-22T01:07:48.882Z,8.10
2024-04-22T01:08:48.897Z,8.02
2024-04-22T01:09:48.881Z,8.03
2024-04-22T01:10:48.914Z,8.07
2024-04-22T01:11:48.928Z,8.00
2024-04-22T01:12:48.822Z,7.94
2024-04-22T01:13:48.874Z,7.77
2024-04-22T01:14:48.809Z,7.74
2024-04-22T01:15:48.798Z,7.71
2024-04-22T01:16:48.801Z,7.62
2024-04-22T01:17:48.951Z,7.59
2024-04-22T01:18:48.777Z,7.66
2024-04-22T01:19:48.770Z,7.72
2024-04-22T01:20:48.743Z,7.67
2024-04-22T01:21:48.755Z,7.67
2024-04-22T01:22:48.785Z,7.66
2024-04-22T01:23:48.740Z,7.69
2024-04-22T01:24:48.709Z,7.59
2024-04-22T01:25:48.757Z,7.63
2024-04-22T01:26:48.714Z,7.69
2024-04-22T01:27:48.673Z,7.71
2024-04-22T01:28:48.690Z,7.69
2024-04-22T01:29:48.682Z,7.52
2024-04-22T01:30:48.644Z,7.44
2024-04-22T01:31:48.649Z,7.45
2024-04-22T01:32:48.659Z,7.55
2024-04-22T01:33:48.616Z,7.56
2024-04-22T01:34:48.599Z,7.59
2024-04-22T01:35:48.619Z,7.60
2024-04-22T01:36:48.586Z,7.63
2024-04-22T01:37:48.589Z,7.66
2024-04-22T01:38:48.646Z,7.62
2024-04-22T01:39:48.575Z,7.62
2024-04-22T01:40:48.561Z,7.59
2024-04-22T01:41:48.554Z,7.53
2024-04-22T01:42:48.492Z,7.53
2024-04-22T01:43:48.515Z,7.44
2024-04-22T01:44:48.486Z,7.50
2024-04-22T01:45:48.484Z,7.50
2024-04-22T01:46:48.508Z,7.44
2024-04-22T01:47:48.556Z,7.45
2024-04-22T01:48:48.457Z,7.44
2024-04-22T01:49:48.432Z,7.44
2024-04-22T01:50:48.428Z,7.38
2024-04-22T01:51:48.396Z,7.34
2024-04-22T01:52:48.431Z,7.37
2024-04-22T01:53:48.407Z,7.40
2024-04-22T01:54:48.366Z,7.37
2024-04-22T01:55:48.443Z,7.26
2024-04-22T01:56:48.363Z,7.24
2024-04-22T01:57:48.329Z,7.29
2024-04-22T01:58:48.329Z,7.31
2024-04-22T01:59:48.398Z,7.27
2024-04-22T02:00:48.333Z,7.32
2024-04-22T02:01:48.330Z,7.37
2024-04-22T02:02:48.332Z,7.42
2024-04-22T02:03:48.302Z,7.45
2024-04-22T02:04:48.275Z,7.44
2024-04-22T02:05:48.328Z,7.44
2024-04-22T02:06:48.262Z,7.47
2024-04-22T02:07:48.414Z,7.42
2024-04-22T02:08:48.265Z,7.41
2024-04-22T02:09:48.213Z,7.41
2024-04-22T02:10:48.327Z,7.41
2024-04-22T02:11:48.210Z,7.45
2024-04-22T02:12:48.188Z,7.42
2024-04-22T02:13:48.211Z,7.40
2024-04-22T02:14:48.175Z,7.35
2024-04-22T02:15:48.138Z,7.38
2024-04-22T02:16:48.255Z,7.40
2024-04-22T02:17:48.194Z,7.34
2024-04-22T02:18:48.137Z,7.32
2024-04-22T02:19:48.097Z,7.27
2024-04-22T02:20:48.098Z,7.22
2024-04-22T02:21:48.082Z,7.20
2024-04-22T02:22:48.078Z,7.23
2024-04-22T02:23:48.060Z,7.20
2024-04-22T02:24:48.079Z,7.17
2024-04-22T02:25:48.112Z,7.09
2024-04-22T02:26:48.033Z,7.08
2024-04-22T02:27:48.024Z,7.07
2024-04-22T02:28:48.057Z,7.01
2024-04-22T02:29:47.988Z,6.98
2024-04-22T02:30:48.036Z,6.98
2024-04-22T02:31:48.031Z,6.97
2024-04-22T02:32:48.082Z,6.94
2024-04-22T02:33:48.008Z,6.91
2024-04-22T02:34:47.942Z,6.89
2024-04-22T02:35:47.924Z,6.87
2024-04-22T02:36:47.966Z,6.84
2024-04-22T02:37:47.921Z,6.86
2024-04-22T02:38:47.910Z,6.87
2024-04-22T02:39:47.894Z,6.90
2024-04-22T02:40:47.986Z,6.89
2024-04-22T02:41:47.906Z,6.94
2024-04-22T02:42:47.901Z,6.91
2024-04-22T02:43:47.913Z,6.89
2024-04-22T02:44:47.841Z,6.84
2024-04-22T02:45:47.821Z,6.83
2024-04-22T02:46:47.826Z,6.86
2024-04-22T02:47:47.838Z,6.94
2024-04-22T02:48:47.825Z,6.99
2024-04-22T02:49:47.829Z,6.99
2024-04-22T02:50:47.769Z,7.01
2024-04-22T02:51:47.754Z,7.01
2024-04-22T02:52:47.797Z,6.98
2024-04-22T02:53:47.727Z,7.01
2024-04-22T02:54:47.759Z,7.02
2024-04-22T02:55:47.747Z,6.98
2024-04-22T02:56:47.705Z,6.95
2024-04-22T02:57:47.735Z,6.98
2024-04-22T02:58:47.753Z,6.99
2024-04-22T02:59:47.667Z,6.99
2024-04-22T03:00:47.758Z,6.99
2024-04-22T03:01:47.707Z,6.95
2024-04-22T03:02:47.667Z,6.90
2024-04-22T03:03:47.681Z,6.91
2024-04-22T03:04:47.635Z,6.89
2024-04-22T03:05:47.626Z,6.84
2024-04-22T03:06:47.634Z,6.81
2024-04-22T03:07:47.640Z,6.83
2024-04-22T03:08:47.587Z,6.77
2024-04-22T03:09:47.573Z,6.77
2024-04-22T03:10:47.632Z,6.72
2024-04-22T03:11:47.601Z,6.68
2024-04-22T03:14:15.123Z,6.66
2024-04-22T03:14:20.473Z,6.62
2024-04-22T03:15:20.477Z,6.69
2024-04-22T03:16:20.514Z,6.68
2024-04-22T03:17:20.494Z,6.66
2024-04-22T03:18:20.546Z,6.63
2024-04-22T03:19:20.442Z,6.62
2024-04-22T03:20:22.183Z,6.56
2024-04-22T03:21:20.397Z,6.53
2024-04-22T03:22:20.411Z,6.53
2024-04-22T03:23:20.377Z,6.51
2024-04-22T03:24:20.418Z,6.58
2024-04-22T03:25:20.364Z,6.58
2024-04-22T03:26:20.344Z,6.58
2024-04-22T03:27:20.334Z,6.59
2024-04-22T03:28:20.359Z,6.59
2024-04-22T03:29:20.313Z,6.58
2024-04-22T03:30:20.333Z,6.53
2024-04-22T03:31:20.418Z,6.54
2024-04-22T03:32:20.310Z,6.50
2024-04-22T03:33:20.280Z,6.48
2024-04-22T03:34:20.319Z,6.53
2024-04-22T03:35:20.248Z,6.56
2024-04-22T03:36:20.273Z,6.54
2024-04-22T03:37:20.270Z,6.56
2024-04-22T03:38:20.225Z,6.51
2024-04-22T03:39:20.238Z,6.53
2024-04-22T03:40:20.245Z,6.51
2024-04-22T03:41:20.183Z,6.46
2024-04-22T03:42:20.197Z,6.47
2024-04-22T03:43:20.214Z,6.47
2024-04-22T03:44:20.196Z,6.46
2024-04-22T03:45:20.145Z,6.43
2024-04-22T03:46:20.188Z,6.46
2024-04-22T03:47:20.132Z,6.43
2024-04-22T03:48:20.106Z,6.41
2024-04-22T03:49:20.134Z,6.38
2024-04-22T03:50:20.142Z,6.40
2024-04-22T03:51:20.082Z,6.41
2024-04-22T03:52:20.133Z,6.44
2024-04-22T03:53:20.062Z,6.43
2024-04-22T03:54:20.056Z,6.38
2024-04-22T03:55:20.081Z,6.35
2024-04-22T03:56:20.046Z,6.36
2024-04-22T03:57:20.014Z,6.33
2024-04-22T03:58:20.083Z,6.29
2024-04-22T03:59:20.003Z,6.30
2024-04-22T04:00:19.996Z,6.29
2024-04-22T04:01:19.991Z,6.19
2024-04-22T04:02:19.999Z,6.11
2024-04-22T04:03:20.008Z,6.04
2024-04-22T04:04:20.101Z,5.95
2024-04-22T04:05:22.787Z,5.92
2024-04-22T04:06:19.962Z,5.91
2024-04-22T04:07:19.933Z,6.00
2024-04-22T04:08:19.932Z,6.09
2024-04-22T04:09:19.883Z,6.13
2024-04-22T04:10:19.982Z,6.13
2024-04-22T04:11:20.360Z,6.14
2024-04-22T04:12:19.860Z,6.16
2024-04-22T04:13:19.869Z,6.19
2024-04-22T04:14:19.955Z,6.21
2024-04-22T04:15:19.826Z,6.22
2024-04-22T04:16:19.901Z,6.21
2024-04-22T04:17:19.848Z,6.22
2024-04-22T04:18:19.827Z,6.19
2024-04-22T04:19:19.797Z,6.21
2024-04-22T04:20:19.812Z,6.18
2024-04-22T04:21:19.765Z,6.21
2024-04-22T04:22:19.757Z,6.21
2024-04-22T04:23:19.731Z,6.19
2024-04-22T04:24:19.727Z,6.18
2024-04-22T04:25:19.751Z,6.18
2024-04-22T04:26:19.758Z,6.16
2024-04-22T04:27:19.691Z,6.14
2024-04-22T04:28:19.760Z,6.13
2024-04-22T04:29:19.674Z,6.14
2024-04-22T04:30:19.676Z,6.14
2024-04-22T04:31:19.769Z,6.16
2024-04-22T04:32:19.724Z,6.19
2024-04-22T04:33:19.671Z,6.19
2024-04-22T04:34:19.774Z,6.16
2024-04-22T04:35:19.987Z,6.16
2024-04-22T04:36:20.096Z,6.25
2024-04-22T04:37:20.618Z,6.21
2024-04-22T04:38:19.817Z,6.18
2024-04-22T04:39:19.603Z,6.14
2024-04-22T04:40:20.076Z,6.22
2024-04-22T04:41:19.706Z,6.30
2024-04-22T04:42:19.822Z,6.35
2024-04-22T04:43:19.691Z,6.32
2024-04-22T04:44:19.880Z,6.33
2024-04-22T04:45:20.928Z,6.38
2024-04-22T04:46:19.800Z,6.46
2024-04-22T04:47:19.759Z,6.48
2024-04-22T04:48:19.576Z,6.54
2024-04-22T04:49:20.261Z,6.54
2024-04-22T04:50:19.778Z,6.61
2024-04-22T04:51:19.551Z,6.66
2024-04-22T04:52:20.153Z,6.68
2024-04-22T04:53:19.501Z,6.81
2024-04-22T04:54:19.567Z,6.84
2024-04-22T04:55:19.876Z,6.86
2024-04-22T04:56:20.251Z,6.90
2024-04-22T04:57:19.443Z,6.97
2024-04-22T04:58:22.935Z,6.99
2024-04-22T04:59:19.426Z,7.09
2024-04-22T05:00:19.446Z,7.15
2024-04-22T05:01:20.363Z,7.17
2024-04-22T05:02:19.516Z,7.19
2024-04-22T05:03:19.480Z,7.24
2024-04-22T05:04:19.454Z,7.37
2024-04-22T05:05:19.351Z,7.44
2024-04-22T05:06:19.308Z,7.45
2024-04-22T05:07:19.397Z,7.47
2024-04-22T05:08:19.320Z,7.56
2024-04-22T05:09:19.277Z,7.60
2024-04-22T05:10:19.365Z,7.59
2024-04-22T05:11:19.308Z,7.59
2024-04-22T05:12:19.229Z,7.63
2024-04-22T05:13:19.289Z,7.72
2024-04-22T05:14:19.254Z,7.79
2024-04-22T05:15:19.262Z,7.82
2024-04-22T05:16:19.252Z,7.84
2024-04-22T05:17:19.226Z,7.79
2024-04-22T05:18:19.222Z,7.77
2024-04-22T05:19:19.187Z,7.78
2024-04-22T05:20:19.150Z,7.81
2024-04-22T05:21:19.138Z,7.82
2024-04-22T05:22:19.137Z,7.82
2024-04-22T05:23:19.100Z,7.78
2024-04-22T05:24:19.102Z,7.84
2024-04-22T05:25:19.144Z,7.85
2024-04-22T05:26:19.090Z,7.79
2024-04-22T05:27:19.069Z,7.77
2024-04-22T05:28:19.064Z,7.75
2024-04-22T05:29:19.043Z,7.81
2024-04-22T05:30:19.036Z,7.78
2024-04-22T05:31:19.071Z,7.79
2024-04-22T05:32:19.140Z,7.87
2024-04-22T05:33:19.046Z,7.89
2024-04-22T05:34:19.091Z,7.90
2024-04-22T05:35:18.975Z,7.94
2024-04-22T05:36:18.953Z,7.97
2024-04-22T05:37:19.194Z,8.02
2024-04-22T05:38:18.940Z,8.12
2024-04-22T05:39:18.943Z,8.21
2024-04-22T05:40:18.981Z,8.28
2024-04-22T05:41:19.059Z,8.32
2024-04-22T05:42:18.894Z,8.39
2024-04-22T05:43:18.955Z,8.37
2024-04-22T05:44:18.894Z,8.40
2024-04-22T05:45:18.912Z,8.44
2024-04-22T05:46:18.887Z,8.45
2024-04-22T05:47:18.837Z,8.45
2024-04-22T05:48:18.894Z,8.53
2024-04-22T05:49:18.868Z,8.51
2024-04-22T05:50:18.831Z,8.48
2024-04-22T05:51:18.847Z,8.51
2024-04-22T05:52:18.796Z,8.51
2024-04-22T05:53:18.768Z,8.50
2024-04-22T05:54:18.876Z,8.47
2024-04-22T05:55:18.786Z,8.44
2024-04-22T05:56:18.740Z,8.44
2024-04-22T05:57:18.767Z,8.40
2024-04-22T05:58:18.741Z,8.39
2024-04-22T05:59:18.738Z,8.37
2024-04-22T06:00:18.717Z,8.36
2024-04-22T06:01:18.837Z,8.37
2024-04-22T06:02:18.707Z,8.39
2024-04-22T06:03:18.670Z,8.35
2024-04-22T06:04:18.721Z,8.39
2024-04-22T06:05:18.696Z,8.35
2024-04-22T06:06:18.625Z,8.33
2024-04-22T06:07:18.672Z,8.35
2024-04-22T06:08:18.620Z,8.39
2024-04-22T06:09:18.595Z,8.39
2024-04-22T06:10:18.599Z,8.45
2024-04-22T06:11:18.666Z,8.47
2024-04-22T06:12:20.139Z,8.51
2024-04-22T06:13:18.573Z,8.51
2024-04-22T06:14:18.555Z,8.51
2024-04-22T06:15:18.539Z,8.50
2024-04-22T06:16:18.613Z,8.53
2024-04-22T06:17:18.584Z,8.50
2024-04-22T06:18:18.597Z,8.48
2024-04-22T06:19:18.539Z,8.53
2024-04-22T06:20:18.481Z,8.54
2024-04-22T06:21:18.474Z,8.55
2024-04-22T06:22:18.530Z,8.60
2024-04-22T06:23:18.450Z,8.62
2024-04-22T06:24:18.445Z,8.62
2024-04-22T06:25:19.289Z,8.57
2024-04-22T06:26:18.418Z,8.58
2024-04-22T06:27:18.422Z,8.60
2024-04-22T06:28:18.415Z,8.57
2024-04-22T06:29:18.390Z,8.60
2024-04-22T06:30:18.402Z,8.53
2024-04-22T06:31:18.541Z,8.57
2024-04-22T06:32:18.526Z,8.57
2024-04-22T06:33:18.368Z,8.55
2024-04-22T06:34:18.373Z,8.65
2024-04-22T06:35:18.367Z,8.71
2024-04-22T06:36:18.298Z,8.71
2024-04-22T06:37:18.363Z,8.71
2024-04-22T06:38:18.289Z,8.72
2024-04-22T06:39:18.270Z,8.63
2024-04-22T06:40:18.294Z,8.58
2024-04-22T06:41:18.259Z,8.63
2024-04-22T06:42:18.249Z,8.68
2024-04-22T06:43:18.499Z,8.72
2024-04-22T06:44:18.211Z,8.79
2024-04-22T06:45:18.255Z,8.78
2024-04-22T06:46:18.226Z,8.79
2024-04-22T06:47:18.231Z,8.83
2024-04-22T06:48:18.198Z,8.87
2024-04-22T06:49:18.249Z,8.91
2024-04-22T06:50:18.186Z,8.90
2024-04-22T06:51:18.151Z,8.91
2024-04-22T06:52:18.142Z,8.94
2024-04-22T06:53:18.130Z,8.97
2024-04-22T06:54:18.127Z,8.97
2024-04-22T06:55:18.146Z,8.99
2024-04-22T06:56:18.087Z,8.99
2024-04-22T06:57:18.089Z,9.01
2024-04-22T06:58:18.094Z,9.10
2024-04-22T06:59:18.061Z,9.16
2024-04-22T07:00:18.038Z,9.18
2024-04-22T07:01:27.257Z,9.27
2024-04-22T07:02:21.004Z,9.30
2024-04-22T07:03:18.172Z,9.32
2024-04-22T07:04:18.082Z,9.35
2024-04-22T07:05:18.088Z,9.39
2024-04-22T07:06:17.992Z,9.46
2024-04-22T07:07:18.014Z,9.42
2024-04-22T07:08:17.955Z,9.46
2024-04-22T07:09:18.177Z,9.50
2024-04-22T07:10:18.002Z,9.56
2024-04-22T07:11:17.948Z,9.63
2024-04-22T07:12:17.912Z,9.64
2024-04-22T07:13:17.967Z,9.68
2024-04-22T07:14:17.894Z,9.71
2024-04-22T07:15:17.894Z,9.75
2024-04-22T07:16:17.962Z,9.82
2024-04-22T07:17:17.892Z,9.89
2024-04-22T07:18:17.856Z,9.97
2024-04-22T07:19:17.867Z,9.97
2024-04-22T07:20:17.856Z,9.94
2024-04-22T07:21:17.832Z,10.01
2024-04-22T07:22:17.922Z,10.09
2024-04-22T07:23:17.795Z,10.15
2024-04-22T07:24:17.783Z,10.22
2024-04-22T07:25:17.812Z,10.24
2024-04-22T07:26:17.764Z,10.33
2024-04-22T07:27:25.657Z,10.30
2024-04-22T07:28:17.776Z,10.28
2024-04-22T07:29:17.749Z,10.30
2024-04-22T07:30:17.732Z,10.39
2024-04-22T07:31:17.726Z,10.36
2024-04-22T07:32:17.793Z,10.34
2024-04-22T07:33:17.745Z,10.39
2024-04-22T07:34:17.696Z,10.39
2024-04-22T07:35:17.700Z,10.39
2024-04-22T07:36:17.664Z,10.44
2024-04-22T07:37:17.703Z,10.51
2024-04-22T07:38:17.675Z,10.58
2024-04-22T07:39:17.627Z,10.58
2024-04-22T07:40:17.671Z,10.56
2024-04-22T07:41:17.605Z,10.71
2024-04-22T07:42:17.610Z,10.81
2024-04-22T07:43:17.626Z,10.89
2024-04-22T07:44:17.571Z,10.98
2024-04-22T07:45:17.566Z,11.09
2024-04-22T07:46:17.628Z,11.10
2024-04-22T07:47:17.594Z,11.09
2024-04-22T07:48:17.557Z,11.06
2024-04-22T07:49:17.561Z,11.16
2024-04-22T07:50:17.507Z,11.25
2024-04-22T07:51:17.506Z,11.35
2024-04-22T07:52:17.568Z,11.36
2024-04-22T07:53:17.525Z,11.39
2024-04-22T07:54:17.453Z,11.50
2024-04-22T07:55:17.509Z,11.59
2024-04-22T07:56:17.488Z,11.64
2024-04-22T07:57:17.433Z,11.74
2024-04-22T07:58:17.428Z,11.78
2024-04-22T07:59:17.437Z,11.86
2024-04-22T08:00:17.383Z,11.99
2024-04-22T08:01:17.405Z,12.06
2024-04-22T08:02:17.431Z,12.09
2024-04-22T08:03:17.368Z,12.09
2024-04-22T08:04:17.463Z,12.20
2024-04-22T08:05:17.370Z,12.30
2024-04-22T08:06:17.332Z,12.19
2024-04-22T08:07:17.377Z,12.20
2024-04-22T08:08:17.309Z,12.11
2024-04-22T08:09:17.299Z,12.15
2024-04-22T08:10:17.295Z,12.31
2024-04-22T08:11:17.385Z,12.31
2024-04-22T08:12:17.297Z,12.46
2024-04-22T08:13:17.302Z,12.56
2024-04-22T08:14:17.244Z,12.62
2024-04-22T08:15:17.233Z,12.66
2024-04-22T08:16:17.354Z,12.70
2024-04-22T08:17:17.326Z,12.57
2024-04-22T08:18:17.221Z,12.62
2024-04-22T08:19:17.192Z,12.66
2024-04-22T08:20:17.256Z,12.62
2024-04-22T08:21:17.172Z,12.57
2024-04-22T08:22:17.221Z,12.62
2024-04-22T08:23:17.158Z,12.60
2024-04-22T08:24:17.142Z,12.42
2024-04-22T08:25:17.248Z,12.42
2024-04-22T08:26:17.135Z,12.52
2024-04-22T08:27:17.103Z,12.67
2024-04-22T08:28:17.142Z,12.77
2024-04-22T08:29:17.084Z,12.97
2024-04-22T08:30:17.291Z,13.06
2024-04-22T08:31:17.090Z,13.15
2024-04-22T08:32:17.049Z,13.15
2024-04-22T08:33:17.104Z,13.27
2024-04-22T08:34:17.083Z,13.20
2024-04-22T08:35:17.023Z,13.24
2024-04-22T08:36:17.005Z,13.36
2024-04-22T08:37:17.018Z,13.37
2024-04-22T08:38:16.996Z,13.37
2024-04-22T08:39:17.012Z,13.30
2024-04-22T08:40:21.399Z,13.29
2024-04-22T08:41:16.949Z,13.21
2024-04-22T08:42:16.946Z,13.20
2024-04-22T08:43:16.982Z,13.22
2024-04-22T08:44:16.931Z,13.27
2024-04-22T08:45:16.936Z,13.30
2024-04-22T08:46:16.933Z,13.24
2024-04-22T08:47:16.917Z,13.27
2024-04-22T08:48:16.910Z,13.27
2024-04-22T08:49:16.898Z,13.27
2024-04-22T08:50:16.846Z,13.30
2024-04-22T08:51:16.864Z,13.20
2024-04-22T08:52:16.876Z,13.09
2024-04-22T08:53:17.025Z,13.04
2024-04-22T08:54:19.972Z,13.04
2024-04-22T08:55:16.810Z,13.06
2024-04-22T08:56:16.787Z,12.99
2024-04-22T08:57:16.796Z,13.06
2024-04-22T08:58:16.797Z,13.06
2024-04-22T08:59:26.005Z,13.09
2024-04-22T09:00:16.739Z,13.18
2024-04-22T09:01:16.775Z,13.18
2024-04-22T09:02:16.741Z,13.24
2024-04-22T09:03:16.870Z,13.24
2024-04-22T09:04:16.773Z,13.30
2024-04-22T09:05:17.057Z,13.18
2024-04-22T09:06:16.711Z,13.25
2024-04-22T09:07:16.724Z,13.33
2024-04-22T09:08:16.923Z,13.29
2024-04-22T09:09:22.769Z,13.29
2024-04-22T09:10:49.058Z,13.24
2024-04-22T09:11:50.076Z,13.36
2024-04-22T09:12:17.399Z,13.47
2024-04-22T09:13:16.938Z,13.49
2024-04-22T09:14:16.743Z,13.52
2024-04-22T09:15:16.702Z,13.49
2024-04-22T09:16:16.703Z,13.56
2024-04-22T09:17:16.719Z,13.51
2024-04-22T09:18:16.684Z,13.44
2024-04-22T09:19:16.665Z,13.33
2024-04-22T09:20:16.604Z,13.33
2024-04-22T09:21:16.594Z,13.36
2024-04-22T09:22:16.618Z,13.44
2024-04-22T09:23:16.564Z,13.43
2024-04-22T09:24:16.520Z,13.44
2024-04-22T09:25:16.487Z,13.43
2024-04-22T09:26:16.570Z,13.47
2024-04-22T09:27:16.460Z,13.52
2024-04-22T09:28:16.447Z,13.56
2024-04-22T09:29:16.476Z,13.63
2024-04-22T09:30:16.421Z,13.71
2024-04-22T09:31:16.432Z,13.80
2024-04-22T09:32:16.607Z,14.01
2024-04-22T09:33:16.555Z,14.17
2024-04-22T09:34:16.670Z,14.16
2024-04-22T09:35:19.113Z,14.20
2024-04-22T09:36:16.339Z,14.35
2024-04-22T09:37:16.467Z,14.44
2024-04-22T09:38:17.102Z,14.49
2024-04-22T09:39:16.452Z,14.46
2024-04-22T09:40:16.365Z,14.44
2024-04-22T09:41:16.574Z,14.47
2024-04-22T09:42:16.303Z,14.72
2024-04-22T09:43:16.402Z,14.93
2024-04-22T09:44:18.184Z,14.99
2024-04-22T09:45:16.350Z,15.06
2024-04-22T09:46:16.435Z,15.30
2024-04-22T09:47:16.278Z,15.56
2024-04-22T09:48:16.461Z,15.54
2024-04-22T09:49:16.467Z,15.41
2024-04-22T09:50:16.532Z,15.42
2024-04-22T09:51:16.388Z,15.48
2024-04-22T09:52:16.237Z,15.35
2024-04-22T09:53:16.285Z,15.09
2024-04-22T09:54:16.143Z,15.01
2024-04-22T09:55:16.188Z,14.98
2024-04-22T09:56:16.375Z,15.02
2024-04-22T09:57:16.106Z,15.20
2024-04-22T09:58:16.155Z,15.28
2024-04-22T09:59:16.169Z,15.54
2024-04-22T10:00:16.136Z,15.81
2024-04-22T10:01:16.090Z,15.86
2024-04-22T10:02:16.253Z,15.96
2024-04-22T10:03:16.122Z,16.00
2024-04-22T10:04:16.452Z,16.01
2024-04-22T10:05:16.280Z,16.23
2024-04-22T10:06:16.289Z,16.62
2024-04-22T10:07:16.133Z,16.93
2024-04-22T10:08:16.174Z,17.15
2024-04-22T10:09:15.995Z,17.25
2024-04-22T10:10:16.041Z,17.43
2024-04-22T10:11:16.141Z,17.63
2024-04-22T10:12:18.312Z,17.74
2024-04-22T10:13:16.077Z,17.32
2024-04-22T10:14:16.435Z,17.53
2024-04-22T10:15:16.085Z,17.95
2024-04-22T10:16:16.155Z,18.44
2024-04-22T10:17:15.929Z,18.72
2024-04-22T10:18:15.983Z,18.95
2024-04-22T10:19:16.045Z,19.47
2024-04-22T10:20:15.942Z,20.00
2024-04-22T10:21:15.852Z,20.56
2024-04-22T10:22:15.860Z,20.83
2024-04-22T10:23:15.855Z,21.08
2024-04-22T10:24:15.818Z,21.30
2024-04-22T10:25:15.810Z,21.34
2024-04-22T10:26:15.793Z,21.54
2024-04-22T10:27:15.803Z,21.67
2024-04-22T10:28:15.785Z,21.83
2024-04-22T10:29:15.780Z,20.81
2024-04-22T10:30:15.758Z,20.24
2024-04-22T10:31:15.752Z,19.78
2024-04-22T10:32:15.726Z,19.10
2024-04-22T10:33:15.844Z,18.55
2024-04-22T10:34:15.717Z,18.64
2024-04-22T10:35:15.710Z,19.08
2024-04-22T10:36:15.701Z,18.90
2024-04-22T10:37:15.699Z,19.06
2024-04-22T10:38:15.663Z,19.91
2024-04-22T10:39:15.675Z,20.51
2024-04-22T10:40:15.682Z,20.99
2024-04-22T10:41:15.636Z,21.42
2024-04-22T10:42:15.612Z,21.82
2024-04-22T10:43:15.630Z,21.90
2024-04-22T10:44:15.590Z,21.35
2024-04-22T10:45:15.619Z,21.56
2024-04-22T10:46:15.579Z,21.98
2024-04-22T10:47:15.619Z,22.41
2024-04-22T10:48:18.215Z,22.83
2024-04-22T10:49:16.630Z,23.08
2024-04-22T10:50:16.412Z,23.01
2024-04-22T10:51:15.546Z,21.83
2024-04-22T10:52:15.545Z,21.35
2024-04-22T10:53:15.491Z,20.65
2024-04-22T10:54:15.494Z,20.24
2024-04-22T10:55:15.522Z,20.18
2024-04-22T10:56:15.500Z,20.76
2024-04-22T10:57:15.456Z,21.08
2024-04-22T10:58:16.396Z,21.46
2024-04-22T10:59:15.442Z,21.46
2024-04-22T11:00:15.424Z,21.34
2024-04-22T11:01:15.552Z,21.82
2024-04-22T11:02:15.567Z,21.09
2024-04-22T11:03:15.382Z,20.65
2024-04-22T11:04:15.665Z,20.84
2024-04-22T11:05:15.963Z,21.60
2024-04-22T11:06:15.369Z,22.29
2024-04-22T11:07:15.387Z,22.57
2024-04-22T11:08:15.361Z,22.80
2024-04-22T11:09:15.332Z,23.20
2024-04-22T11:10:15.366Z,23.04
2024-04-22T11:11:15.396Z,22.28
2024-04-22T11:12:15.313Z,21.60
2024-04-22T11:13:15.367Z,22.12
2024-04-22T11:14:15.315Z,23.07
2024-04-22T11:15:15.254Z,23.64
2024-04-22T11:16:15.333Z,24.16
2024-04-22T11:17:15.232Z,24.79
2024-04-22T11:18:15.226Z,24.26
2024-04-22T11:19:15.228Z,23.90
2024-04-22T11:20:15.247Z,24.53
2024-04-22T11:21:15.186Z,25.07
2024-04-22T11:22:15.200Z,25.47
2024-04-22T11:23:15.178Z,25.61
2024-04-22T11:24:15.162Z,24.47
2024-04-22T11:25:15.207Z,23.90
2024-04-22T11:26:15.167Z,23.24
2024-04-22T11:27:15.160Z,22.49
2024-04-22T11:28:15.159Z,22.99
2024-04-22T11:29:15.112Z,22.28
2024-04-22T11:30:15.102Z,21.91
2024-04-22T11:31:15.120Z,21.32
2024-04-22T11:32:15.239Z,20.81
2024-04-22T11:33:15.143Z,20.46
2024-04-22T11:34:15.079Z,21.63
2024-04-22T11:35:15.051Z,22.35
2024-04-22T11:36:15.043Z,22.92
2024-04-22T11:37:15.054Z,23.72
2024-04-22T11:38:15.048Z,24.53
2024-04-22T11:39:15.008Z,25.15
2024-04-22T11:40:15.047Z,25.25
2024-04-22T11:41:14.972Z,25.64
2024-04-22T11:42:14.969Z,25.99
2024-04-22T11:43:15.000Z,26.37
2024-04-22T11:44:14.971Z,26.64
2024-04-22T11:45:15.058Z,26.58
2024-04-22T11:46:14.972Z,25.61
2024-04-22T11:47:15.008Z,25.44
2024-04-22T11:48:14.967Z,25.25
2024-04-22T11:49:14.916Z,24.67
2024-04-22T11:50:14.883Z,23.57
2024-04-22T11:51:14.896Z,22.72
2024-04-22T11:52:14.907Z,22.16
2024-04-22T11:53:21.016Z,21.69
2024-04-22T11:54:14.838Z,21.38
2024-04-22T11:55:14.995Z,21.14
2024-04-22T11:56:14.809Z,21.67
2024-04-22T11:57:14.796Z,20.68
2024-04-22T11:58:14.957Z,20.12
2024-04-22T11:59:14.809Z,19.94
2024-04-22T12:00:14.809Z,19.91
2024-04-22T12:01:14.813Z,19.75
2024-04-22T12:02:14.749Z,19.57
2024-04-22T12:03:14.756Z,19.38
2024-04-22T12:04:14.860Z,19.14
2024-04-22T12:05:14.977Z,18.94
2024-04-22T12:06:14.721Z,18.91
2024-04-22T12:07:14.762Z,18.97
2024-04-22T12:08:14.699Z,19.01
2024-04-22T12:09:14.686Z,18.84
2024-04-22T12:10:14.724Z,18.83
2024-04-22T12:11:14.672Z,18.06
2024-04-22T12:12:14.639Z,17.76
2024-04-22T12:13:14.674Z,17.47
2024-04-22T12:14:14.616Z,17.25
2024-04-22T12:15:14.651Z,17.07
2024-04-22T12:16:14.659Z,16.95
2024-04-22T12:17:14.622Z,16.95
2024-04-22T12:18:14.619Z,17.04
2024-04-22T12:19:14.596Z,17.17
2024-04-22T12:20:14.558Z,18.40
2024-04-22T12:21:14.539Z,19.11
2024-04-22T12:22:14.544Z,20.56
2024-04-22T12:23:14.520Z,21.91
2024-04-22T12:24:14.555Z,22.34
2024-04-22T12:25:14.539Z,22.71
2024-04-22T12:26:14.480Z,23.02
2024-04-22T12:27:14.507Z,23.50
2024-04-22T12:28:20.427Z,24.01
2024-04-22T12:29:14.463Z,24.10
2024-04-22T12:30:14.483Z,24.04
2024-04-22T12:31:14.453Z,22.72
2024-04-22T12:32:14.426Z,21.45
2024-04-22T12:33:14.518Z,22.28
2024-04-22T12:34:14.510Z,22.22
2024-04-22T12:35:14.407Z,22.14
2024-04-22T12:36:14.411Z,21.34
2024-04-22T12:37:14.391Z,21.36
2024-04-22T12:38:14.361Z,20.86
2024-04-22T12:39:14.339Z,20.65
2024-04-22T12:40:14.356Z,20.49
2024-04-22T12:41:14.325Z,20.31
2024-04-22T12:42:14.351Z,20.21
2024-04-22T12:43:14.355Z,19.80
2024-04-22T12:44:14.302Z,19.75
2024-04-22T12:45:14.305Z,20.53
2024-04-22T12:46:14.300Z,20.64
2024-04-22T12:47:14.291Z,20.24
2024-04-22T12:48:14.458Z,19.97
2024-04-22T12:49:14.312Z,19.78
2024-04-22T12:50:14.322Z,19.69
2024-04-22T12:51:14.229Z,19.50
2024-04-22T12:52:14.242Z,19.25
2024-04-22T12:53:14.185Z,19.15
2024-04-22T12:54:14.209Z,19.05
2024-04-22T12:55:14.263Z,18.90
2024-04-22T12:56:14.210Z,18.86
2024-04-22T12:57:14.165Z,18.76
2024-04-22T12:58:14.180Z,18.79
2024-04-22T12:59:14.171Z,18.77
2024-04-22T13:00:14.483Z,18.68
2024-04-22T13:01:14.108Z,18.44
2024-04-22T13:02:14.142Z,18.37
2024-04-22T13:03:14.125Z,18.31
2024-04-22T13:04:14.140Z,18.22
2024-04-22T13:05:14.154Z,18.24
2024-04-22T13:06:14.056Z,18.06
2024-04-22T13:07:14.059Z,18.07